createdAt,value
2022-12-22T00:03:44.485Z,55.67
2022-12-22T00:09:07.348Z,58.43
2022-12-22T00:14:28.263Z,63.60
2022-12-22T00:19:48.704Z,58.10
2022-12-22T00:25:09.013Z,58.50
2022-12-22T00:30:36.010Z,52.30
2022-12-22T00:35:56.314Z,64.00
2022-12-22T00:41:19.123Z,68.00
2022-12-22T00:46:42.392Z,62.17
2022-12-22T00:52:05.158Z,68.70
2022-12-22T00:57:32.154Z,71.27
2022-12-22T01:02:52.687Z,73.13
2022-12-22T01:08:13.682Z,68.57
2022-12-22T01:13:34.761Z,75.87
2022-12-22T01:18:55.628Z,76.57
2022-12-22T01:24:15.986Z,86.73
2022-12-22T01:29:36.958Z,84.90
2022-12-22T01:34:57.787Z,88.00
2022-12-22T01:40:18.151Z,92.70
2022-12-22T01:45:41.993Z,102.63
2022-12-22T01:51:02.470Z,84.40
2022-12-22T01:56:24.539Z,90.13
2022-12-22T02:01:48.232Z,94.10
2022-12-22T02:07:12.407Z,99.53
2022-12-22T02:13:02.897Z,88.33
2022-12-22T02:18:23.468Z,86.83
2022-12-22T02:24:21.007Z,83.47
2022-12-22T02:29:47.804Z,94.27
2022-12-22T02:35:11.096Z,106.70
2022-12-22T02:40:51.359Z,80.23
2022-12-22T02:46:28.941Z,85.07
2022-12-22T02:51:52.201Z,95.80
2022-12-22T02:57:14.921Z,91.07
2022-12-22T03:02:35.436Z,91.97
2022-12-22T03:07:56.169Z,96.83
2022-12-22T03:13:18.109Z,95.87
2022-12-22T03:18:38.044Z,101.60
2022-12-22T03:23:58.555Z,88.73
2022-12-22T03:29:01.174Z,87.60
2022-12-22T03:34:03.468Z,96.43
2022-12-22T03:39:10.161Z,107.47
2022-12-22T03:44:33.199Z,105.23
2022-12-22T03:49:37.145Z,99.13
2022-12-22T03:54:46.177Z,114.73
2022-12-22T03:59:50.102Z,111.20
2022-12-22T04:04:51.728Z,98.70
2022-12-22T04:10:17.922Z,109.83
2022-12-22T04:15:19.872Z,111.37
2022-12-22T04:20:23.862Z,111.33
2022-12-22T04:25:26.332Z,102.83
2022-12-22T04:30:27.976Z,107.70
2022-12-22T04:35:36.030Z,109.67
2022-12-22T04:40:41.957Z,112.67
2022-12-22T04:45:44.860Z,107.90
2022-12-22T04:50:50.868Z,99.10
2022-12-22T04:56:00.215Z,112.13
2022-12-22T05:01:13.202Z,105.80
2022-12-22T05:06:16.254Z,125.23
2022-12-22T05:11:21.592Z,106.37
2022-12-22T05:16:25.877Z,119.33
2022-12-22T05:21:27.626Z,115.67
2022-12-22T05:26:32.534Z,131.37
2022-12-22T05:31:40.727Z,117.90
2022-12-22T05:36:49.052Z,127.50
2022-12-22T05:41:50.803Z,139.60
2022-12-22T05:46:52.971Z,111.27
2022-12-22T05:51:57.453Z,134.23
2022-12-22T05:56:59.163Z,108.03
2022-12-22T06:02:00.919Z,122.17
2022-12-22T06:07:08.872Z,120.90
2022-12-22T06:12:13.041Z,108.90
2022-12-22T06:17:17.925Z,140.83
2022-12-22T06:22:19.593Z,128.10
2022-12-22T06:27:23.363Z,161.43
2022-12-22T06:32:29.698Z,165.40
2022-12-22T06:37:33.640Z,211.30
2022-12-22T06:42:59.608Z,138.57
2022-12-22T06:48:06.565Z,139.70
2022-12-22T06:53:09.542Z,138.33
2022-12-22T06:58:13.662Z,133.20
2022-12-22T07:03:20.643Z,161.73
2022-12-22T07:08:25.641Z,156.53
2022-12-22T07:13:34.161Z,159.13
2022-12-22T07:18:39.510Z,161.17
2022-12-22T07:23:48.165Z,162.60
2022-12-22T07:28:52.503Z,166.57
2022-12-22T07:33:54.380Z,168.70
2022-12-22T07:38:56.243Z,156.67
2022-12-22T07:44:01.683Z,175.33
2022-12-22T07:49:23.318Z,203.67
2022-12-22T07:54:30.407Z,180.80
2022-12-22T07:59:35.164Z,152.70
2022-12-22T08:04:36.986Z,133.53
2022-12-22T08:09:38.955Z,170.53
2022-12-22T08:14:45.855Z,201.07
2022-12-22T08:19:57.798Z,209.93
2022-12-22T08:24:59.531Z,138.20
2022-12-22T08:30:05.094Z,181.50
2022-12-22T08:35:08.071Z,170.03
2022-12-22T08:40:14.621Z,143.10
2022-12-22T08:45:18.652Z,157.93
2022-12-22T08:50:22.582Z,162.83
2022-12-22T08:55:28.413Z,135.07
2022-12-22T09:00:30.342Z,105.63
2022-12-22T09:05:40.304Z,91.87
2022-12-22T09:10:45.347Z,94.73
2022-12-22T09:15:51.862Z,76.90
2022-12-22T09:20:56.987Z,54.10
2022-12-22T09:26:10.442Z,57.97
2022-12-22T09:31:12.725Z,51.23
2022-12-22T09:36:19.134Z,53.57
2022-12-22T09:41:38.007Z,61.20
2022-12-22T09:46:44.447Z,53.87
2022-12-22T09:51:52.923Z,57.30
2022-12-22T09:56:59.185Z,68.33
2022-12-22T10:02:15.274Z,71.83
2022-12-22T10:07:34.357Z,83.97
2022-12-22T10:12:36.157Z,84.13
2022-12-22T10:17:43.496Z,68.17
2022-12-22T10:22:58.902Z,67.80
2022-12-22T10:28:09.275Z,61.93
2022-12-22T10:33:19.251Z,63.33
2022-12-22T10:38:32.523Z,56.00
2022-12-22T10:43:37.815Z,60.23
2022-12-22T10:48:41.800Z,52.13
2022-12-22T10:53:49.294Z,46.33
2022-12-22T10:59:10.406Z,43.77
2022-12-22T11:04:29.105Z,35.37
2022-12-22T11:09:35.341Z,35.03
2022-12-22T11:14:58.657Z,27.43
2022-12-22T11:20:31.352Z,35.53
2022-12-22T11:25:49.782Z,28.52
2022-12-22T11:31:19.584Z,30.13
2022-12-22T11:36:46.851Z,31.47
2022-12-22T11:42:15.511Z,24.37
2022-12-22T11:47:17.250Z,25.13
2022-12-22T11:52:35.709Z,22.47
2022-12-22T11:57:43.260Z,22.63
2022-12-22T12:03:00.156Z,27.13
2022-12-22T12:08:20.977Z,24.20
2022-12-22T12:13:37.379Z,20.10
2022-12-22T12:18:46.317Z,18.37
2022-12-22T12:24:15.566Z,22.33
2022-12-22T12:29:21.983Z,24.23
2022-12-22T12:34:24.611Z,28.87
2022-12-22T12:39:38.431Z,29.23
2022-12-22T12:44:42.923Z,31.67
2022-12-22T12:49:55.130Z,35.13
2022-12-22T12:55:31.328Z,29.63
2022-12-22T13:00:37.686Z,31.27
2022-12-22T13:05:52.594Z,29.80
2022-12-22T13:10:56.835Z,32.93
2022-12-22T13:16:03.221Z,18.03
2022-12-22T13:26:35.057Z,22.30
2022-12-22T13:31:45.259Z,18.53
2022-12-22T13:36:50.962Z,15.57
2022-12-22T13:41:53.843Z,19.83
2022-12-22T13:47:02.896Z,26.93
2022-12-22T13:52:17.406Z,14.30
2022-12-22T13:57:24.270Z,18.47
2022-12-22T14:02:32.367Z,22.30
2022-12-22T14:07:34.386Z,13.97
2022-12-22T14:12:45.080Z,15.03
2022-12-22T14:17:52.532Z,15.38
2022-12-22T14:23:06.250Z,21.30
2022-12-22T14:28:35.373Z,18.60
2022-12-22T14:33:39.399Z,15.40
2022-12-22T14:38:49.229Z,18.43
2022-12-22T14:43:51.053Z,16.63
2022-12-22T14:48:52.760Z,22.40
2022-12-22T14:53:57.969Z,19.97
2022-12-22T14:59:10.796Z,16.00
2022-12-22T15:04:20.297Z,18.80
2022-12-22T15:09:47.297Z,15.93
2022-12-22T15:14:49.808Z,18.33
2022-12-22T15:19:58.760Z,17.13
2022-12-22T15:25:00.871Z,18.50
2022-12-22T15:30:06.455Z,15.37
2022-12-22T15:35:24.424Z,18.43
2022-12-22T15:40:26.771Z,23.70
2022-12-22T15:45:30.090Z,15.67
2022-12-22T15:50:40.700Z,19.13
2022-12-22T15:55:49.308Z,24.60
2022-12-22T16:00:53.415Z,20.50
2022-12-22T16:05:55.452Z,23.77
2022-12-22T16:10:59.751Z,19.57
2022-12-22T16:16:04.408Z,18.77
2022-12-22T16:25:37.387Z,24.33
2022-12-22T16:30:40.141Z,21.23
2022-12-22T16:35:42.405Z,23.07
2022-12-22T16:40:46.760Z,26.83
2022-12-22T16:45:49.770Z,26.10
2022-12-22T16:50:54.364Z,29.03
2022-12-22T16:55:56.385Z,25.37
2022-12-22T17:01:01.247Z,28.50
2022-12-22T17:10:58.212Z,26.30
2022-12-22T17:16:01.721Z,24.80
2022-12-22T17:21:04.716Z,22.57
2022-12-22T17:26:08.644Z,26.37
2022-12-22T17:31:18.114Z,27.80
2022-12-22T17:36:34.713Z,27.13
2022-12-22T17:41:39.766Z,25.60
2022-12-22T17:46:41.908Z,26.80
2022-12-22T17:51:43.842Z,29.27
2022-12-22T17:56:48.019Z,27.90
2022-12-22T18:01:52.419Z,31.27
2022-12-22T18:06:56.104Z,25.17
2022-12-22T18:12:00.590Z,31.47
2022-12-22T18:17:04.816Z,34.77
2022-12-22T18:22:11.685Z,31.57
2022-12-22T18:27:15.300Z,31.90
2022-12-22T18:32:27.075Z,28.03
2022-12-22T18:37:29.537Z,32.83
2022-12-22T18:42:33.435Z,34.83
2022-12-22T18:47:40.469Z,40.47
2022-12-22T18:52:42.543Z,34.43
2022-12-22T18:57:50.017Z,33.53
2022-12-22T19:02:57.447Z,27.20
2022-12-22T19:08:01.974Z,38.30
2022-12-22T19:13:08.471Z,41.83
2022-12-22T19:18:22.640Z,30.50
2022-12-22T19:23:30.226Z,37.87
2022-12-22T19:28:38.358Z,29.73
2022-12-22T19:33:42.784Z,30.90
2022-12-22T19:38:49.838Z,37.93
2022-12-22T19:43:54.874Z,42.97
2022-12-22T19:48:59.304Z,33.47
2022-12-22T19:54:01.287Z,34.57
2022-12-22T19:59:08.462Z,32.63
2022-12-22T20:04:13.651Z,43.27
2022-12-22T20:09:15.419Z,46.47
2022-12-22T20:14:19.532Z,39.27
2022-12-22T20:19:24.617Z,48.50
2022-12-22T20:24:31.301Z,43.43
2022-12-22T20:29:34.184Z,43.67
2022-12-22T20:34:38.270Z,43.53
2022-12-22T20:39:42.497Z,44.67
2022-12-22T20:45:02.899Z,46.37
2022-12-22T20:50:26.244Z,49.37
2022-12-22T20:55:28.857Z,50.90
2022-12-22T21:00:31.870Z,52.53
2022-12-22T21:05:33.674Z,53.57
2022-12-22T21:10:38.211Z,51.17
2022-12-22T21:15:42.765Z,53.27
2022-12-22T21:20:46.496Z,67.07
2022-12-22T21:25:52.907Z,53.97
2022-12-22T21:30:57.106Z,57.40
2022-12-22T21:36:00.018Z,59.63
2022-12-22T21:41:06.620Z,57.47
2022-12-22T21:46:14.193Z,59.30
2022-12-22T21:51:16.020Z,61.00
2022-12-22T21:56:19.269Z,55.40
2022-12-22T22:01:23.355Z,63.90
2022-12-22T22:06:27.921Z,62.10
2022-12-22T22:11:54.534Z,57.10
2022-12-22T22:16:58.468Z,72.00
2022-12-22T22:22:03.032Z,73.13
2022-12-22T22:27:08.203Z,71.17
2022-12-22T22:32:14.491Z,73.80
2022-12-22T22:37:16.174Z,75.30
2022-12-22T22:42:18.925Z,60.43
2022-12-22T22:47:20.859Z,58.93
2022-12-22T22:52:22.517Z,63.53
2022-12-22T22:57:29.631Z,60.70
2022-12-22T23:02:33.978Z,75.70
2022-12-22T23:07:36.448Z,77.90
2022-12-22T23:12:39.160Z,84.17
2022-12-22T23:17:45.421Z,80.53
2022-12-22T23:22:47.161Z,70.80
2022-12-22T23:27:49.035Z,81.67
2022-12-22T23:32:50.785Z,93.23
2022-12-22T23:37:52.430Z,102.67
2022-12-22T23:42:57.337Z,63.07
2022-12-22T23:48:00.227Z,71.80
2022-12-22T23:53:02.007Z,75.13
2022-12-22T23:58:06.844Z,123.93
